Vail, Washington
Current Conditions -  °F | °C
As of 7:54 PM on Sunday 25 Jan 2015 (Local Time) from KOLM Reporting Station
Moderate Fog Moderate Fog  
Wind Chill: 47°   Ceiling: 100
Heat Index: 47°   Visibility: 0.25mi
Dew Point: 46°   Wind: 0mph
Humidity: 97%   Direction: NA
Pressure: 30.02"   Gusts: NA
Location:  46.8214°N, 122.662°W
Report Text: KOLM 260354Z 00000KT 1/4SM FG VV001 08/08 A3002 RMK AO2 SLP167 T00830078
Loading
Personal Weather Stations






























Interactive Weather Map New forecast layout! Learn more

10-Day Weather Forecast

Advertisements
Track Severe Weather on mobile